Time;durP1;ratioP1;P1;durP2;ratioP2;P2;SDS_P1;SDS_P2;PMS_P1;PMS_P2;Temp;Humidity;BMP_temperature;BMP_pressure;BME280_temperature;BME280_humidity;BME280_pressure;Samples;Min_cycle;Max_cycle;Signal;HPM_P1;HPM_P2
2023/01/31 00:01:38;;;;;;;9.95;2.38;;;2.90;99.90;;;1.11;90.93;100637.47;4917930;28;20110;-78
2023/01/31 00:04:11;;;;;;;12.55;2.10;;;2.90;99.90;;;1.07;91.40;100646.16;4944399;28;20739;-78
2023/01/31 00:06:43;;;;;;;16.17;2.33;;;2.80;99.90;;;1.06;91.44;100639.22;4910990;28;20046;-77
2023/01/31 00:09:11;;;;;;;19.92;2.35;;;2.80;99.90;;;1.07;91.52;100652.19;4950164;28;20039;-78
2023/01/31 00:11:38;;;;;;;12.07;2.03;;;2.80;99.90;;;1.03;91.92;100655.69;4920434;28;20073;-77
2023/01/31 00:14:11;;;;;;;11.85;2.78;;;2.80;99.90;;;1.05;92.06;100653.09;4884093;28;20042;-77
2023/01/31 00:16:37;;;;;;;18.55;2.35;;;2.80;99.90;;;1.05;92.13;100660.88;4897458;28;20039;-77
2023/01/31 00:19:03;;;;;;;14.82;2.28;;;2.80;99.90;;;1.02;92.16;100665.19;4924034;28;20030;-78
2023/01/31 00:21:30;;;;;;;18.58;2.95;;;2.80;99.90;;;1.01;92.21;100667.78;4928790;28;20046;-77
2023/01/31 00:23:57;;;;;;;15.82;2.03;;;2.80;99.90;;;0.97;92.32;100666.97;4910582;28;20034;-77
2023/01/31 00:26:28;;;;;;;20.25;2.50;;;2.70;99.90;;;0.89;92.74;100678.28;4947478;28;20035;-78
2023/01/31 00:28:55;;;;;;;13.85;2.17;;;2.70;99.90;;;0.91;92.68;100667.03;4944837;28;20124;-78
2023/01/31 00:31:24;;;;;;;18.88;2.83;;;2.70;99.90;;;0.92;93.17;100675.66;4908588;28;20054;-78
2023/01/31 00:33:53;;;;;;;25.52;3.58;;;2.70;99.90;;;0.90;93.30;100685.19;4944073;28;20042;-78
2023/01/31 00:36:22;;;;;;;20.70;3.53;;;2.70;99.90;;;0.86;93.00;100686.91;4916257;28;20036;-78
2023/01/31 00:38:51;;;;;;;24.92;3.88;;;2.60;99.90;;;0.85;93.42;100686.94;4932684;28;20039;-78
2023/01/31 00:41:18;;;;;;;22.60;3.22;;;2.60;99.90;;;0.85;93.71;100703.34;4964364;28;20039;-77
2023/01/31 00:43:47;;;;;;;18.05;2.05;;;2.60;99.90;;;0.77;94.03;100705.13;4903469;28;20559;-77
2023/01/31 00:46:13;;;;;;;18.13;1.73;;;2.60;99.90;;;0.75;94.13;100705.13;4927707;28;20512;-77
2023/01/31 00:48:39;;;;;;;21.38;3.53;;;2.50;99.90;;;0.74;94.39;100718.97;4938246;28;20046;-78
2023/01/31 00:51:05;;;;;;;29.33;3.97;;;2.50;99.90;;;0.77;94.62;100720.69;4924281;28;20114;-77
2023/01/31 00:53:31;;;;;;;26.42;2.55;;;2.50;99.90;;;0.76;94.70;100717.25;4893967;28;20035;-79
2023/01/31 00:56:07;;;;;;;23.75;2.72;;;2.50;99.90;;;0.79;94.99;100712.03;4931803;28;20092;-78
2023/01/31 00:58:33;;;;;;;27.73;4.30;;;2.50;99.90;;;0.78;94.58;100717.25;4923602;28;20084;-77
2023/01/31 01:01:20;;;;;;;22.95;3.13;;;2.50;99.90;;;0.81;94.71;100707.69;4898971;28;20058;-78
2023/01/31 01:03:46;;;;;;;16.38;2.65;;;2.50;99.90;;;0.74;95.02;100698.25;4937927;28;20067;-77
2023/01/31 01:06:13;;;;;;;12.60;2.08;;;2.50;99.90;;;0.73;94.84;100703.44;4887311;28;20136;-77
2023/01/31 01:08:41;;;;;;;25.02;3.33;;;2.50;99.90;;;0.69;95.06;100707.78;4930554;28;20043;-77
2023/01/31 01:11:16;;;;;;;20.20;2.92;;;2.40;99.90;;;0.69;95.41;100706.91;4926066;28;20287;-76
2023/01/31 01:13:42;;;;;;;14.00;2.30;;;2.40;99.90;;;0.64;95.56;100703.50;4951723;28;20043;-78
2023/01/31 01:16:16;;;;;;;15.95;2.45;;;2.40;99.90;;;0.59;95.61;100706.97;4887550;28;20319;-77
2023/01/31 01:18:45;;;;;;;25.50;2.63;;;2.40;99.90;;;0.60;95.93;100713.91;4897706;28;20399;-78
2023/01/31 01:21:21;;;;;;;16.52;2.83;;;2.40;99.90;;;0.58;96.08;100719.94;4937297;28;20035;-77
2023/01/31 01:23:47;;;;;;;;;;;2.40;99.90;;;0.56;96.38;100717.38;4920863;28;20655;-77
2023/01/31 01:26:33;;;;;;;8.32;1.38;;;2.40;99.90;;;0.59;96.72;100721.66;4918742;28;19914;-78
2023/01/31 01:29:01;;;;;;;22.92;3.45;;;2.30;99.90;;;0.60;96.43;100726.84;4932668;28;20043;-78
2023/01/31 01:31:32;;;;;;;31.15;3.92;;;2.40;99.90;;;0.66;96.70;100735.44;4957402;28;20030;-77
2023/01/31 01:34:02;;;;;;;24.52;2.53;;;2.40;99.90;;;0.69;96.16;100738.00;4905174;28;20027;-77
2023/01/31 01:36:38;;;;;;;13.68;1.92;;;2.40;99.90;;;0.62;95.99;100737.19;4894039;28;20038;-77
2023/01/31 01:39:07;;;;;;;22.35;2.25;;;2.40;99.90;;;0.66;95.98;100738.03;4876658;28;20463;-77
2023/01/31 01:41:34;;;;;;;26.73;3.85;;;2.40;99.90;;;0.63;95.93;100744.09;4933129;28;20042;-78
2023/01/31 01:44:43;;;;;;;25.30;3.53;;;2.40;99.90;;;0.64;95.79;100744.97;4913803;28;20503;-77
2023/01/31 01:47:51;;;;;;;15.98;2.33;;;2.40;99.90;;;0.58;95.62;100748.44;4925208;28;20074;-77
2023/01/31 01:50:41;;;;;;;19.70;2.45;;;2.30;99.90;;;0.53;95.94;100748.47;4913724;28;20047;-77
2023/01/31 01:53:21;;;;;;;27.92;3.42;;;2.30;99.90;;;0.50;95.95;100764.03;4923361;28;20051;-79
2023/01/31 01:56:36;;;;;;;25.70;2.83;;;2.30;99.90;;;0.50;96.15;100770.97;4927224;28;20039;-78
2023/01/31 01:59:42;;;;;;;32.10;3.22;;;2.30;99.90;;;0.53;96.19;100774.38;4838150;29;20103;-77
2023/01/31 02:02:12;;;;;;;33.53;3.45;;;2.20;99.90;;;0.52;95.90;100783.03;4795171;29;20097;-77
2023/01/31 02:04:41;;;;;;;21.88;2.63;;;2.30;99.90;;;0.51;96.12;100773.53;4855038;28;20689;-77
2023/01/31 02:07:07;;;;;;;20.90;2.92;;;2.30;99.90;;;0.51;96.31;100783.88;4905348;28;20593;-77
2023/01/31 02:09:39;;;;;;;26.38;2.63;;;2.30;99.90;;;0.53;96.39;100782.16;4896990;28;20023;-78
2023/01/31 02:12:05;;;;;;;20.52;2.78;;;2.30;99.90;;;0.53;95.71;100789.06;4923865;28;20453;-77
2023/01/31 02:14:31;;;;;;;26.27;3.20;;;2.30;99.90;;;0.55;95.58;100789.91;4920520;28;20035;-77
2023/01/31 02:16:57;;;;;;;34.17;2.85;;;2.30;99.90;;;0.53;95.70;100789.06;4942136;28;20043;-77
2023/01/31 02:20:08;;;;;;;20.27;2.58;;;2.30;99.90;;;0.56;96.00;100789.03;4922362;28;20113;-77
2023/01/31 02:22:46;;;;;;;21.95;2.38;;;2.30;99.90;;;0.55;95.43;100787.34;4943801;28;20027;-77
2023/01/31 02:25:55;;;;;;;16.90;1.90;;;2.30;99.90;;;0.56;95.29;100787.34;4946897;28;20131;-77
2023/01/31 02:29:07;;;;;;;23.25;2.65;;;2.30;99.90;;;0.58;95.17;100798.56;4933131;28;20043;-78
2023/01/31 02:32:11;;;;;;;25.67;2.80;;;2.30;99.90;;;0.55;94.78;100802.88;4907881;28;20062;-77
2023/01/31 02:35:12;;;;;;;19.15;2.22;;;2.30;99.90;;;0.48;94.98;100802.03;4924010;28;20039;-75
2023/01/31 02:38:18;;;;;;;28.42;2.15;;;2.30;99.90;;;0.47;95.31;100805.50;4941805;28;20130;-79
2023/01/31 02:40:53;;;;;;;27.08;2.70;;;2.20;99.90;;;0.50;94.59;100810.69;4927977;28;20043;-79
2023/01/31 02:43:29;;;;;;;23.90;2.65;;;2.20;99.90;;;0.51;95.32;100816.72;4924400;28;20038;-78
2023/01/31 02:46:17;;;;;;;23.27;2.80;;;2.20;99.90;;;0.47;95.59;100815.84;4907765;28;20043;-79
2023/01/31 02:49:33;;;;;;;23.88;3.40;;;2.20;99.90;;;0.44;96.13;100820.19;4886103;28;20054;-79
2023/01/31 02:52:15;;;;;;;14.68;1.77;;;2.20;99.90;;;0.38;96.27;100818.47;4933188;28;20034;-79
2023/01/31 02:57:40;;;;;;;17.55;2.60;;;2.20;99.90;;;0.36;97.77;100821.06;4927523;28;20085;-79
2023/01/31 03:00:07;;;;;;;24.35;2.80;;;2.10;99.90;;;0.36;98.39;100820.22;4929841;28;20201;-78
2023/01/31 03:02:33;;;;;;;22.98;2.75;;;2.20;99.90;;;0.36;98.83;100818.47;4923077;28;20115;-76
2023/01/31 03:04:59;;;;;;;12.18;2.20;;;2.20;99.90;;;0.37;98.77;100829.72;4926713;28;20280;-75
2023/01/31 03:07:32;;;;;;;33.92;3.05;;;2.20;99.90;;;0.42;98.85;100833.16;4885729;28;20055;-75
2023/01/31 03:10:26;;;;;;;22.65;2.75;;;2.20;99.90;;;0.41;98.86;100834.00;4926953;28;20046;-75
2023/01/31 03:13:39;;;;;;;24.38;2.40;;;2.10;99.90;;;0.40;98.69;100845.25;4920328;28;20048;-76
2023/01/31 03:19:34;;;;;;;23.05;3.35;;;2.10;99.90;;;0.41;98.46;100828.81;4908990;28;20079;-78
2023/01/31 03:22:17;;;;;;;27.48;3.20;;;2.10;99.90;;;0.42;98.14;100834.88;4951270;28;21215;-79
2023/01/31 03:24:51;;;;;;;31.30;3.60;;;2.20;99.90;;;0.43;98.01;100844.38;4929572;28;20035;-79
2023/01/31 03:27:18;;;;;;;25.58;2.33;;;2.20;99.90;;;0.44;98.31;100841.78;4908574;28;20094;-76
2023/01/31 03:29:44;;;;;;;17.45;2.42;;;2.20;99.90;;;0.42;98.09;100842.66;4927500;28;20714;-79
2023/01/31 03:32:29;;;;;;;32.47;3.33;;;2.10;99.90;;;0.45;97.91;100840.03;4914434;28;20104;-79
2023/01/31 03:35:02;;;;;;;19.20;2.22;;;2.20;99.90;;;0.39;97.75;100859.09;4945402;28;20023;-79
2023/01/31 03:37:38;;;;;;;30.80;3.17;;;2.10;99.90;;;0.43;97.54;100850.41;4908356;28;20125;-77
2023/01/31 03:40:33;;;;;;;20.15;2.97;;;2.20;99.90;;;0.47;97.69;100859.91;4931839;28;20504;-79
2023/01/31 03:43:03;;;;;;;14.00;2.35;;;2.20;99.90;;;0.44;97.89;100844.38;4909356;28;20469;-80
2023/01/31 03:45:45;;;;;;;24.77;3.22;;;2.20;99.90;;;0.51;97.32;100868.53;4935317;28;20380;-77
2023/01/31 03:48:16;;;;;;;26.63;2.97;;;2.20;99.90;;;0.50;97.36;100869.41;4924151;28;20051;-79
2023/01/31 03:50:59;;;;;;;17.10;2.00;;;2.30;99.90;;;0.53;96.90;100859.88;4922772;28;20046;-77
2023/01/31 03:53:48;;;;;;;15.23;1.80;;;2.20;99.90;;;0.52;96.68;100867.66;4920297;28;20031;-75
2023/01/31 03:56:23;;;;;;;14.52;1.73;;;2.20;99.90;;;0.52;96.99;100875.41;4934555;28;20432;-76
2023/01/31 03:58:56;;;;;;;17.65;1.98;;;2.30;99.90;;;0.53;96.93;100885.78;4935555;28;20126;-78
2023/01/31 04:01:27;;;;;;;18.05;2.65;;;2.30;99.90;;;0.54;96.83;100884.94;4916752;28;20111;-79
2023/01/31 04:04:06;;;;;;;21.95;2.72;;;2.30;99.90;;;0.61;95.92;100880.59;4915122;28;20047;-79
2023/01/31 04:06:32;;;;;;;26.27;2.58;;;2.40;99.90;;;0.60;96.15;100887.53;4955847;28;20039;-79
2023/01/31 04:08:58;;;;;;;31.42;3.60;;;2.30;99.90;;;0.58;95.77;100885.78;4921222;28;20125;-79
2023/01/31 04:11:28;;;;;;;35.25;3.05;;;2.30;99.90;;;0.63;95.80;100885.75;4914550;28;20042;-77
2023/01/31 04:13:56;;;;;;;27.83;3.20;;;2.30;99.90;;;0.63;95.39;100899.59;4921004;28;20479;-76
2023/01/31 04:16:22;;;;;;;29.60;3.38;;;2.30;99.90;;;0.58;95.26;100902.22;4908538;28;20043;-80
2023/01/31 04:18:48;;;;;;;25.65;2.45;;;2.30;99.90;;;0.53;95.91;100903.94;4928263;28;20066;-79
2023/01/31 04:21:14;;;;;;;35.35;3.20;;;2.20;99.90;;;0.54;95.94;100910.84;4904086;28;20038;-76
2023/01/31 04:23:40;;;;;;;31.00;4.25;;;2.20;99.90;;;0.55;96.10;100907.38;4922743;28;20087;-76
2023/01/31 04:26:10;;;;;;;23.05;2.92;;;2.20;99.90;;;0.53;96.29;100911.69;4937084;28;20035;-76
2023/01/31 04:28:36;;;;;;;25.20;2.63;;;2.20;99.90;;;0.59;96.21;100911.69;4882177;28;20046;-75
2023/01/31 04:31:04;;;;;;;35.35;3.10;;;2.20;99.90;;;0.64;95.88;100910.81;4935334;28;20063;-76
2023/01/31 04:33:29;;;;;;;31.35;3.05;;;2.30;99.90;;;0.71;96.09;100907.34;4881438;28;20038;-77
2023/01/31 04:35:55;;;;;;;22.67;3.13;;;2.40;99.90;;;0.79;95.66;100901.25;4901970;28;20038;-77
2023/01/31 04:38:23;;;;;;;32.58;3.47;;;2.40;99.90;;;0.85;95.88;100899.53;4957690;28;20047;-77
2023/01/31 04:40:52;;;;;;;29.08;2.92;;;2.50;99.90;;;0.94;95.72;100889.09;4908321;28;20078;-77
2023/01/31 04:43:18;;;;;;;31.33;3.42;;;2.50;99.90;;;0.93;96.11;100880.47;4944467;28;20050;-76
2023/01/31 04:45:44;;;;;;;36.95;3.38;;;2.60;99.90;;;1.02;96.13;100882.16;4914954;28;20027;-77
2023/01/31 04:48:10;;;;;;;40.10;4.03;;;2.60;99.90;;;1.06;96.33;100880.41;4919410;28;20034;-77
2023/01/31 04:50:36;;;;;;;33.58;3.60;;;2.70;99.90;;;1.11;96.14;100873.47;4908183;28;20118;-76
2023/01/31 04:53:04;;;;;;;35.58;4.30;;;2.70;99.90;;;1.14;95.66;100870.84;4911167;28;20058;-77
2023/01/31 04:55:32;;;;;;;36.83;4.43;;;2.70;99.90;;;1.08;95.36;100869.16;4886617;28;20061;-76
2023/01/31 04:57:58;;;;;;;40.88;3.67;;;2.60;99.90;;;0.94;95.84;100861.44;4914945;28;20041;-76
2023/01/31 05:00:23;;;;;;;34.90;3.88;;;2.60;99.90;;;0.89;96.34;100873.56;4947996;28;20051;-76
2023/01/31 05:02:50;;;;;;;35.25;3.63;;;2.60;99.90;;;0.87;96.96;100875.31;4908370;28;20042;-76
2023/01/31 05:05:16;;;;;;;29.33;3.45;;;2.50;99.90;;;0.84;97.85;100877.91;4902585;28;20433;-76
2023/01/31 05:07:46;;;;;;;38.00;3.63;;;2.50;99.90;;;0.85;98.84;100874.47;4883189;28;20035;-76
2023/01/31 05:10:12;;;;;;;39.85;3.97;;;2.60;99.90;;;0.89;99.24;100876.16;4912346;28;20036;-77
2023/01/31 05:12:38;;;;;;;32.72;3.35;;;2.60;99.90;;;0.94;99.88;100883.91;4932014;28;20129;-76
2023/01/31 05:15:06;;;;;;;36.55;4.03;;;2.60;99.90;;;0.96;100.00;100879.59;4901399;28;20047;-76
2023/01/31 05:17:33;;;;;;;38.20;3.63;;;2.60;99.90;;;1.03;100.00;100879.53;4888838;28;20053;-77
2023/01/31 05:20:04;;;;;;;34.25;4.35;;;2.70;99.90;;;1.11;100.00;100884.69;4913695;28;20129;-79
2023/01/31 05:22:32;;;;;;;32.50;3.78;;;2.70;99.90;;;1.16;100.00;100885.53;4893087;28;20046;-79
2023/01/31 05:24:58;;;;;;;38.08;4.68;;;2.80;99.90;;;1.23;100.00;100891.53;4872587;28;20039;-79
2023/01/31 05:27:25;;;;;;;39.53;4.45;;;2.80;99.90;;;1.24;100.00;100901.06;4906553;28;20520;-80
2023/01/31 05:29:55;;;;;;;44.65;4.55;;;2.90;99.90;;;1.22;99.90;100906.25;4926259;28;20436;-79
2023/01/31 05:32:20;;;;;;;41.70;4.22;;;2.80;99.90;;;1.17;99.81;100909.75;4915988;28;20038;-80
2023/01/31 05:34:46;;;;;;;37.22;4.72;;;2.80;99.90;;;1.16;99.80;100900.22;4901156;28;20346;-78
2023/01/31 05:37:12;;;;;;;39.35;3.88;;;2.80;99.90;;;1.19;99.37;100901.09;4921588;28;20062;-79
2023/01/31 05:39:38;;;;;;;43.03;4.53;;;3.50;99.90;;;1.24;99.78;100903.66;4878646;28;20067;-78
2023/01/31 05:42:03;;;;;;;46.88;4.55;;;2.90;99.90;;;1.29;99.30;100899.28;4890770;28;20069;-79
2023/01/31 05:44:32;;;;;;;43.05;4.43;;;2.90;99.90;;;1.30;99.45;100887.22;4903067;28;20038;-79
2023/01/31 05:47:00;;;;;;;37.67;3.92;;;2.90;99.90;;;1.32;99.33;100901.88;4899907;28;20114;-79
2023/01/31 05:49:30;;;;;;;34.38;3.72;;;2.90;99.90;;;1.34;99.41;100896.66;4906010;28;20031;-79
2023/01/31 05:51:56;;;;;;;46.00;4.00;;;3.00;99.90;;;1.39;99.67;100898.38;4896043;28;20040;-78
2023/01/31 05:54:30;;;;;;;50.40;5.22;;;3.00;99.90;;;1.39;99.43;100906.16;4932042;28;20034;-79
2023/01/31 05:56:56;;;;;;;38.92;4.50;;;3.00;99.90;;;1.41;99.33;100903.56;4901183;28;20077;-76
2023/01/31 05:59:22;;;;;;;42.45;3.70;;;3.10;99.90;;;1.39;99.48;100903.56;4893340;28;20118;-77
2023/01/31 06:01:48;;;;;;;37.20;3.92;;;3.00;99.90;;;1.41;99.28;100907.00;4923192;28;20046;-76
2023/01/31 06:04:14;;;;;;;36.88;4.78;;;3.00;99.90;;;1.40;99.37;100905.31;4932856;28;20558;-77
2023/01/31 06:06:44;;;;;;;34.65;3.65;;;3.00;99.90;;;1.36;99.21;100918.28;4899963;28;20042;-76
2023/01/31 06:09:10;;;;;;;34.80;4.18;;;3.00;99.90;;;1.28;98.67;100920.94;4924096;28;20047;-77
2023/01/31 06:11:36;;;;;;;37.92;4.15;;;2.90;99.90;;;1.14;98.60;100918.38;4923625;28;20035;-75
2023/01/31 06:14:02;;;;;;;36.10;3.00;;;2.80;99.90;;;1.08;98.91;100923.63;4890769;28;20043;-77
2023/01/31 06:16:28;;;;;;;38.60;3.50;;;2.70;99.90;;;1.02;98.99;100927.09;4912028;28;20035;-75
2023/01/31 06:18:55;;;;;;;38.00;3.58;;;2.70;99.90;;;1.01;99.19;100929.69;4919997;28;20055;-77
2023/01/31 06:21:24;;;;;;;31.85;3.40;;;2.70;99.90;;;0.97;99.63;100926.28;4922475;28;20038;-77
2023/01/31 06:23:50;;;;;;;33.17;3.58;;;2.60;99.90;;;0.98;99.19;100924.53;4943265;28;20039;-76
2023/01/31 06:26:16;;;;;;;37.03;3.85;;;2.60;99.90;;;0.97;99.18;100928.88;4904987;28;20035;-76
2023/01/31 06:28:41;;;;;;;33.88;3.92;;;2.60;99.90;;;0.91;99.23;100928.88;4925245;28;20042;-77
2023/01/31 06:31:17;;;;;;;27.45;2.85;;;2.60;99.90;;;0.88;99.41;100928.88;4922836;28;20125;-76
2023/01/31 06:33:43;;;;;;;39.45;3.88;;;2.50;99.90;;;0.82;99.71;100918.53;4913148;28;20084;-76
2023/01/31 06:36:08;;;;;;;24.67;2.50;;;2.50;99.90;;;0.79;99.29;100921.13;4934397;28;20750;-75
2023/01/31 06:38:34;;;;;;;32.65;3.20;;;2.50;99.90;;;0.78;99.46;100925.47;4918519;28;20073;-77
2023/01/31 06:41:11;;;;;;;29.73;3.13;;;2.40;99.90;;;0.78;99.93;100925.47;4889295;28;20591;-77
2023/01/31 06:43:37;;;;;;;39.65;3.65;;;2.40;99.90;;;0.78;99.92;100922.03;4896053;28;20040;-76
2023/01/31 06:46:03;;;;;;;28.63;2.80;;;2.40;99.90;;;0.79;99.91;100929.78;4940568;28;20059;-77
2023/01/31 06:48:29;;;;;;;30.65;3.50;;;2.50;99.90;;;0.82;100.00;100928.88;4919307;28;20092;-76
2023/01/31 06:51:02;;;;;;;35.20;2.88;;;2.50;99.90;;;0.79;100.00;100932.34;4910562;28;20065;-77
2023/01/31 06:53:27;;;;;;;30.10;2.97;;;2.50;99.90;;;0.77;100.00;100931.50;4891715;28;20132;-79
2023/01/31 06:55:53;;;;;;;26.92;3.08;;;2.40;99.90;;;0.76;100.00;100931.53;4892621;28;20117;-79
2023/01/31 06:58:19;;;;;;;33.63;3.63;;;2.40;99.90;;;0.74;100.00;100928.94;4923274;28;20042;-78
2023/01/31 07:00:45;;;;;;;26.55;2.90;;;2.40;99.90;;;0.70;100.00;100932.41;4910970;28;20105;-77
2023/01/31 07:03:11;;;;;;;28.80;2.90;;;2.30;99.90;;;0.66;100.00;100935.00;4933161;28;20079;-77
2023/01/31 07:05:37;;;;;;;31.35;2.60;;;2.30;99.90;;;0.61;100.00;100932.44;4893539;28;20476;-76
2023/01/31 07:08:07;;;;;;;29.67;2.35;;;2.20;99.90;;;0.60;100.00;100931.56;4911643;28;20109;-77
2023/01/31 07:10:33;;;;;;;33.17;3.58;;;2.30;99.90;;;0.66;100.00;100937.59;4923676;28;20042;-77
2023/01/31 07:13:00;;;;;;;32.92;3.47;;;2.30;99.90;;;0.73;100.00;100934.09;4905753;28;20519;-78
2023/01/31 07:15:26;;;;;;;27.33;4.28;;;2.30;99.90;;;0.80;100.00;100941.88;4924488;28;20023;-76
2023/01/31 07:18:01;;;;;;;27.02;2.58;;;2.40;99.90;;;0.93;100.00;100936.63;4884068;28;20190;-76
2023/01/31 07:20:26;;;;;;;26.20;2.53;;;2.50;99.90;;;1.03;100.00;100935.72;4932293;28;20069;-76
2023/01/31 07:22:57;;;;;;;22.92;2.58;;;2.60;99.90;;;1.11;100.00;100933.13;4941948;28;20529;-77
2023/01/31 07:25:32;;;;;;;41.72;3.60;;;2.70;99.90;;;1.17;100.00;100935.69;4927760;28;20609;-77
2023/01/31 07:27:59;;;;;;;36.88;3.20;;;2.70;99.90;;;1.26;100.00;100938.25;4916316;28;20068;-76
2023/01/31 07:30:25;;;;;;;26.25;3.22;;;2.80;99.90;;;1.30;100.00;100946.88;4935566;28;20399;-77
2023/01/31 07:32:56;;;;;;;26.50;3.00;;;2.90;99.90;;;1.35;99.98;100945.97;4907449;28;20083;-77
2023/01/31 07:35:22;;;;;;;29.83;2.90;;;2.90;99.90;;;1.38;99.88;100939.88;4919969;28;20044;-79
2023/01/31 07:37:51;;;;;;;24.33;3.30;;;3.00;99.90;;;1.39;99.78;100945.09;4904367;28;20066;-78
2023/01/31 07:40:17;;;;;;;30.98;4.28;;;3.00;99.90;;;1.44;99.48;100942.47;4899911;28;20456;-78
2023/01/31 07:42:47;;;;;;;29.13;3.72;;;3.00;99.90;;;1.47;99.47;100947.66;4905163;28;20097;-79
2023/01/31 07:45:15;;;;;;;42.45;3.03;;;3.10;99.90;;;1.51;99.36;100943.28;4910372;28;20031;-79
2023/01/31 07:47:41;;;;;;;33.05;3.10;;;3.10;99.90;;;1.54;99.10;100940.69;4923221;28;20073;-77
2023/01/31 07:50:09;;;;;;;27.67;3.33;;;3.20;99.90;;;1.59;99.07;100941.50;4910258;28;20098;-76
2023/01/31 07:52:37;;;;;;;37.35;3.40;;;3.20;99.90;;;1.67;98.93;100944.94;4909799;28;21394;-79
2023/01/31 07:55:06;;;;;;;24.33;3.33;;;3.20;99.90;;;1.72;99.09;100948.34;4914430;28;20046;-79
2023/01/31 07:57:32;;;;;;;28.58;3.97;;;3.30;99.90;;;1.78;98.54;100940.50;4912852;28;20035;-79
2023/01/31 07:59:57;;;;;;;28.83;3.53;;;3.30;99.90;;;1.85;98.62;100943.94;4906098;28;20490;-79
2023/01/31 08:05:15;;;;;;;28.63;3.22;;;3.50;99.90;;;1.96;98.06;100939.50;4917825;28;20077;-79
2023/01/31 08:07:40;;;;;;;33.67;3.55;;;3.50;99.90;;;2.02;98.26;100936.00;4915083;28;20050;-79
2023/01/31 08:10:08;;;;;;;29.23;3.00;;;3.60;99.90;;;2.09;97.87;100936.81;4933936;28;20075;-80
2023/01/31 08:12:39;;;;;;;36.35;3.70;;;3.60;99.90;;;2.08;97.57;100935.97;4908895;28;20126;-79
2023/01/31 08:15:06;;;;;;;32.90;3.30;;;3.70;99.90;;;2.14;97.86;100925.53;4901922;28;20122;-79
2023/01/31 08:17:32;;;;;;;29.58;3.55;;;3.70;99.90;;;2.21;97.72;100924.59;4924242;28;20118;-79
2023/01/31 08:19:57;;;;;;;28.95;4.13;;;3.70;99.90;;;2.20;97.57;100920.28;4920163;28;20061;-79
2023/01/31 08:22:24;;;;;;;43.65;3.88;;;3.80;99.90;;;2.24;97.27;100921.09;4891132;28;20507;-79
2023/01/31 08:24:50;;;;;;;25.05;3.00;;;3.80;99.90;;;2.30;97.55;100931.44;4917214;28;21118;-79
2023/01/31 08:27:20;;;;;;;34.75;3.35;;;3.80;99.90;;;2.35;97.49;100919.25;4928264;28;20050;-79
2023/01/31 08:29:46;;;;;;;25.52;3.30;;;3.90;99.90;;;2.39;97.74;100915.75;4900432;28;20544;-79
2023/01/31 08:32:12;;;;;;;25.17;3.35;;;4.00;99.90;;;2.49;97.35;100916.53;4908530;28;20028;-80
2023/01/31 08:34:38;;;;;;;38.88;3.40;;;4.10;99.90;;;2.61;97.60;100916.41;4939689;28;20078;-79
2023/01/31 08:37:03;;;;;;;37.20;3.80;;;4.10;99.90;;;2.72;97.51;100912.81;4945793;28;20110;-80
2023/01/31 08:39:29;;;;;;;28.77;2.85;;;4.20;99.90;;;2.75;97.28;100918.00;4937193;28;20049;-76
2023/01/31 08:41:57;;;;;;;34.10;3.33;;;4.30;99.90;;;2.85;97.26;100924.78;4924819;28;20031;-76
2023/01/31 08:44:26;;;;;;;31.63;3.25;;;4.40;99.90;;;2.91;97.36;100911.72;4943185;28;20058;-77
2023/01/31 08:46:51;;;;;;;25.08;3.03;;;4.40;99.90;;;2.98;97.21;100910.78;4907283;28;20043;-77
2023/01/31 08:49:17;;;;;;;35.08;3.92;;;4.50;99.90;;;3.10;96.81;100911.50;4931236;28;20503;-76
2023/01/31 08:51:44;;;;;;;27.23;3.05;;;4.60;99.90;;;3.19;96.90;100908.78;4931594;28;20125;-77
2023/01/31 08:54:11;;;;;;;32.97;3.50;;;4.60;99.90;;;3.17;96.97;100905.31;4905939;28;20582;-76
2023/01/31 08:56:37;;;;;;;27.08;3.65;;;4.70;99.90;;;3.18;96.69;100891.47;4956057;28;20081;-77
2023/01/31 08:59:05;;;;;;;30.75;4.15;;;4.70;99.90;;;3.22;96.58;100894.00;4914530;28;20048;-77
2023/01/31 09:01:31;;;;;;;30.95;4.13;;;4.70;99.90;;;3.23;96.48;100898.31;4920926;28;20039;-77
2023/01/31 09:03:58;;;;;;;40.00;4.32;;;4.70;99.90;;;3.27;96.39;100886.97;4937173;28;20110;-77
2023/01/31 09:06:26;;;;;;;28.00;3.33;;;4.80;99.90;;;3.35;96.26;100886.88;4923866;28;20035;-77
2023/01/31 09:08:58;;;;;;;41.60;3.92;;;4.80;99.90;;;3.42;95.83;100888.50;4926681;28;20111;-77
2023/01/31 09:11:28;;;;;;;27.38;3.53;;;4.90;99.90;;;3.49;95.87;100891.88;4905605;28;20039;-77
2023/01/31 09:13:55;;;;;;;31.23;4.07;;;4.90;99.90;;;3.55;95.69;100880.50;4949948;23;20770;-80
2023/01/31 09:16:28;;;;;;;30.98;3.65;;;5.00;99.90;;;3.64;95.65;100881.22;4912455;28;20048;-80
2023/01/31 09:18:55;;;;;;;28.27;2.90;;;5.10;99.90;;;3.71;94.92;100884.59;4923080;28;20042;-80
2023/01/31 09:21:28;;;;;;;27.17;3.10;;;5.10;99.90;;;3.67;94.98;100880.31;4939335;28;20549;-77
2023/01/31 09:24:02;;;;;;;25.95;3.03;;;5.20;99.90;;;3.67;94.82;100881.19;4928321;28;20039;-78
2023/01/31 09:26:33;;;;;;;30.58;3.83;;;5.20;99.90;;;3.62;94.71;100871.72;4909419;28;20043;-77
2023/01/31 09:29:02;;;;;;;25.85;3.35;;;5.10;99.90;;;3.59;94.77;100863.97;4887926;29;20034;-78
2023/01/31 09:31:28;;;;;;;25.95;3.70;;;5.10;99.90;;;3.58;95.15;100867.44;4893106;28;20039;-76
2023/01/31 09:33:54;;;;;;;33.33;3.25;;;5.10;99.90;;;3.54;95.63;100861.41;4917953;28;20118;-77
2023/01/31 09:36:23;;;;;;;24.05;2.75;;;5.10;99.90;;;3.44;96.38;100860.69;4931259;28;20126;-76
2023/01/31 09:38:56;;;;;;;30.75;3.05;;;5.00;99.90;;;3.44;96.97;100855.50;4915807;29;20036;-77
2023/01/31 09:41:51;;;;;;;32.08;3.35;;;5.00;99.90;;;3.44;97.20;100858.09;4896541;29;20379;-79
2023/01/31 09:44:32;;;;;;;30.67;3.72;;;5.00;99.90;;;3.48;97.59;100857.16;4922872;28;20031;-78
2023/01/31 09:47:51;;;;;;;40.20;4.72;;;5.00;99.90;;;3.47;97.53;100860.63;4925438;28;20044;-77
2023/01/31 09:50:21;;;;;;;33.47;3.67;;;5.00;99.90;;;3.55;98.21;100851.88;4912166;28;20099;-79
2023/01/31 09:52:49;;;;;;;22.23;3.10;;;5.10;99.90;;;3.55;98.26;100844.91;4901026;28;20063;-78
2023/01/31 09:55:45;;;;;;;35.15;3.53;;;5.10;99.90;;;3.58;97.91;100836.19;4932739;29;20385;-77
2023/01/31 09:58:46;;;;;;;35.28;3.80;;;5.10;99.90;;;3.60;98.37;100826.63;4902598;28;20071;-78
2023/01/31 10:01:24;;;;;;;25.85;3.38;;;5.10;99.90;;;3.63;98.39;100821.38;4917958;28;20054;-78
2023/01/31 10:04:04;;;;;;;32.63;4.15;;;5.10;99.90;;;3.61;98.61;100815.31;4918313;29;20040;-77
2023/01/31 10:07:24;;;;;;;25.60;3.40;;;5.10;99.90;;;3.60;99.39;100813.59;4922276;28;20050;-77
2023/01/31 10:10:03;;;;;;;29.27;4.25;;;5.10;99.90;;;3.61;99.48;100808.38;4906279;28;20067;-78
2023/01/31 10:13:00;;;;;;;37.90;4.60;;;5.20;99.90;;;3.64;99.78;100807.44;4913923;28;20039;-79
2023/01/31 10:16:04;;;;;;;41.42;4.25;;;5.20;99.90;;;3.69;100.00;100797.81;4905468;28;20054;-78
2023/01/31 10:18:40;;;;;;;36.60;3.72;;;5.20;99.90;;;3.69;100.00;100790.88;4905968;28;20047;-78
2023/01/31 10:21:32;;;;;;;;;;;5.20;99.90;;;3.71;100.00;100780.41;4929065;28;20051;-78
2023/01/31 10:24:24;;;;;;;22.63;3.20;;;5.30;99.90;;;3.81;100.00;100775.91;4912379;28;19921;-78
2023/01/31 10:26:55;;;;;;;28.45;3.88;;;5.30;99.90;;;3.88;100.00;100782.72;4918651;28;20130;-78
2023/01/31 10:29:43;;;;;;;35.45;3.70;;;5.40;99.90;;;3.92;100.00;100775.72;4940497;28;20039;-78
2023/01/31 10:32:44;;;;;;;32.67;4.15;;;5.40;99.90;;;3.92;100.00;100763.53;4930458;28;20099;-79
2023/01/31 10:35:40;;;;;;;26.35;3.60;;;5.40;99.90;;;3.90;100.00;100766.16;4919912;28;20583;-78
2023/01/31 10:38:46;;;;;;;28.67;4.65;;;5.40;99.90;;;3.93;100.00;100752.25;4943432;28;20078;-77
2023/01/31 10:41:42;;;;;;;24.58;3.83;;;5.50;99.90;;;3.96;100.00;100748.72;4832575;28;20047;-78
2023/01/31 10:44:52;;;;;;;31.27;4.10;;;5.50;99.90;;;3.93;100.00;100734.03;4914879;28;20046;-78
2023/01/31 10:47:32;;;;;;;35.15;5.15;;;5.50;99.90;;;3.94;100.00;100727.91;4924867;28;20039;-79
2023/01/31 10:49:58;;;;;;;42.33;4.70;;;5.50;99.90;;;3.89;100.00;100733.22;4946041;28;20041;-77
2023/01/31 10:52:58;;;;;;;34.78;4.82;;;5.50;99.90;;;3.94;100.00;100722.69;4948208;28;20048;-80